Terminal Aerodrome Forecast
Issued by NWS Atlanta, GA

Home | Current Version | Previous Version | Text Only | Print | Product List | Glossary On
Versions: 1 2 3 4 5 6 7 8 9 10 11 12 13 14 15 16 17 18 19 20 21 22
000
FTUS42 KFFC 262331
TAFMCN
TAF
KMCN 262331Z 2700/2724 00000KT P6SM SCT250
      TEMPO 2709/2713 4SM BR SCT002
     FM271400 13004KT P6SM BKN120
     FM272200 13004KT P6SM BKN080=

USA.gov is the U.S. government's official web portal to all federal, state and local government web resources and services.